Time;durP1;ratioP1;P1;durP2;ratioP2;P2;SDS_P1;SDS_P2;PMS_P1;PMS_P2;Temp;Humidity;BMP_temperature;BMP_pressure;BME280_temperature;BME280_humidity;BME280_pressure;Samples;Min_cycle;Max_cycle;Signal;HPM_P1;HPM_P2
2021/05/15 00:02:02;;;;;;;8.53;7.67;;;;;;;10.77;69.29;98118.42;2179190;82;20938;-77
2021/05/15 00:05:03;;;;;;;9.23;8.37;;;;;;;10.69;69.38;98120.61;2179342;82;20941;-79
2021/05/15 00:08:04;;;;;;;12.77;8.97;;;;;;;10.63;69.48;98125.83;2179461;82;21283;-77
2021/05/15 00:11:06;;;;;;;8.17;7.40;;;;;;;10.57;69.70;98116.25;2179126;82;21056;-77
2021/05/15 00:14:07;;;;;;;10.50;7.80;;;;;;;10.51;69.64;98123.65;2179277;82;21377;-77
2021/05/15 00:17:08;;;;;;;9.97;8.23;;;;;;;10.45;69.88;98122.34;2179414;82;21370;-78
2021/05/15 00:20:12;;;;;;;9.87;8.10;;;;;;;10.40;70.15;98127.08;2179046;82;20977;-78
2021/05/15 00:23:11;;;;;;;10.60;8.97;;;;;;;10.30;70.33;98126.64;2179120;82;20981;-78
2021/05/15 00:26:14;;;;;;;10.10;9.07;;;;;;;10.21;70.62;98132.27;2179216;82;20938;-77
2021/05/15 00:29:16;;;;;;;11.30;9.63;;;;;;;10.12;71.09;98131.35;2179383;82;21021;-77
2021/05/15 00:32:17;;;;;;;9.67;8.63;;;;;;;10.05;70.92;98130.47;2179148;82;21315;-77
2021/05/15 00:35:18;;;;;;;21.70;10.17;;;;;;;9.99;71.35;98134.36;2178970;82;20907;-77
2021/05/15 00:38:19;;;;;;;23.07;11.33;;;;;;;9.91;71.56;98137.38;2179104;82;20926;-77
2021/05/15 00:47:28;;;;;;;15.50;13.43;;;;;;;9.83;71.97;98145.17;2152184;82;20979;-79
2021/05/15 00:50:29;;;;;;;28.50;14.97;;;;;;;9.76;72.25;98146.45;2179398;82;20970;-79
2021/05/15 00:53:30;;;;;;;28.60;15.10;;;;;;;9.74;72.52;98150.35;2179486;81;21017;-80
2021/05/15 00:56:31;;;;;;;35.63;17.60;;;;;;;9.68;72.57;98149.02;2179239;81;20923;-80
2021/05/15 00:59:32;;;;;;;34.23;16.73;;;;;;;9.67;72.49;98150.32;2161948;82;21021;-79
2021/05/15 01:02:33;;;;;;;32.43;17.67;;;;;;;9.66;72.51;98142.06;2162157;82;21042;-79
2021/05/15 01:05:34;;;;;;;23.53;17.13;;;;;;;9.64;72.50;98145.09;2162194;82;20955;-79
2021/05/15 01:08:35;;;;;;;28.93;16.17;;;;;;;9.62;72.96;98150.73;2162046;82;21064;-79
2021/05/15 01:11:35;;;;;;;13.70;12.30;;;;;;;9.57;72.67;98153.31;2162102;82;20958;-79
2021/05/15 01:14:37;;;;;;;12.27;10.97;;;;;;;9.54;73.17;98154.17;2162095;82;20935;-79
2021/05/15 01:17:38;;;;;;;14.87;13.30;;;;;;;9.51;72.87;98155.43;2162265;82;21062;-79
2021/05/15 01:20:39;;;;;;;16.83;15.07;;;;;;;9.50;72.93;98152.39;2162276;82;21030;-78
2021/05/15 01:23:40;;;;;;;20.57;15.70;;;;;;;9.50;72.73;98154.98;2161795;82;20982;-77
2021/05/15 01:26:41;;;;;;;19.20;17.30;;;;;;;9.47;73.51;98152.38;2161522;82;20915;-78
2021/05/15 01:29:42;;;;;;;20.73;18.53;;;;;;;9.45;72.99;98148.89;2162069;82;21029;-81
2021/05/15 01:32:43;;;;;;;21.20;18.30;;;;;;;9.50;72.99;98154.98;2161998;82;21042;-79
2021/05/15 01:35:44;;;;;;;21.67;14.20;;;;;;;9.56;73.24;98154.19;2162198;82;20938;-79
2021/05/15 01:38:45;;;;;;;24.00;15.03;;;;;;;9.59;73.21;98146.38;2162027;82;21038;-79
2021/05/15 01:41:46;;;;;;;16.83;11.93;;;;;;;9.66;73.24;98145.98;2162188;82;20927;-80
2021/05/15 01:44:47;;;;;;;19.60;14.27;;;;;;;9.70;73.19;98150.33;2162173;82;20998;-78
2021/05/15 01:47:48;;;;;;;23.40;14.83;;;;;;;9.74;72.98;98145.57;2161983;82;20939;-80
2021/05/15 01:50:49;;;;;;;23.67;16.67;;;;;;;9.74;73.15;98150.35;2161810;82;20959;-77
2021/05/15 01:53:50;;;;;;;26.63;15.33;;;;;;;9.70;72.95;98145.12;2161929;82;20931;-76
2021/05/15 01:56:51;;;;;;;24.03;13.60;;;;;;;9.64;72.92;98147.27;2161895;81;21127;-77
2021/05/15 01:59:52;;;;;;;31.63;14.10;;;;;;;9.60;73.68;98154.64;2171954;82;20998;-77
2021/05/15 02:02:53;;;;;;;29.13;16.37;;;;;;;9.55;73.22;98153.31;2171896;82;20951;-77
2021/05/15 02:05:54;;;;;;;21.00;13.70;;;;;;;9.51;73.24;98146.31;2171838;82;20942;-77
2021/05/15 02:08:55;;;;;;;21.90;14.07;;;;;;;9.53;73.49;98151.09;2171626;82;20899;-77
2021/05/15 02:11:56;;;;;;;12.70;8.77;;;;;;;9.52;73.33;98153.27;2171805;82;20915;-78
2021/05/15 02:14:57;;;;;;;12.67;8.60;;;;;;;9.49;73.30;98150.64;2171619;82;20910;-77
2021/05/15 02:17:58;;;;;;;12.03;8.23;;;;;;;9.45;73.24;98151.92;2172152;82;20926;-79
2021/05/15 02:20:59;;;;;;;11.00;8.73;;;;;;;9.42;73.16;98161.02;2172188;82;21030;-79
2021/05/15 02:24:00;;;;;;;9.17;8.27;;;;;;;9.39;73.13;98163.18;2171874;82;20947;-77
2021/05/15 02:27:01;;;;;;;9.87;8.30;;;;;;;9.37;73.07;98166.64;2171609;82;20922;-77
2021/05/15 02:30:02;;;;;;;11.93;8.53;;;;;;;9.33;73.02;98165.75;2171652;82;21012;-77
2021/05/15 02:33:03;;;;;;;8.60;7.70;;;;;;;9.28;72.94;98167.89;2171715;82;21377;-77
2021/05/15 02:36:04;;;;;;;11.43;7.93;;;;;;;9.23;73.12;98167.86;2171460;82;20923;-76
2021/05/15 02:39:05;;;;;;;10.00;8.30;;;;;;;9.17;73.02;98166.09;2171611;82;20946;-76
2021/05/15 02:42:06;;;;;;;12.37;8.23;;;;;;;9.14;73.44;98163.89;2171676;82;20935;-77
2021/05/15 02:45:07;;;;;;;9.23;8.00;;;;;;;10.01;74.03;98169.13;2171626;82;21307;-77
2021/05/15 02:48:08;;;;;;;9.87;8.87;;;;;;;9.84;72.53;98172.98;2171813;82;21259;-76
2021/05/15 02:51:09;;;;;;;12.97;8.77;;;;;;;9.65;72.42;98174.20;2171677;82;20918;-77
2021/05/15 02:54:10;;;;;;;9.97;8.97;;;;;;;9.48;72.61;98172.34;2171776;82;21331;-77
2021/05/15 02:57:11;;;;;;;10.50;8.63;;;;;;;9.34;72.77;98180.52;2171241;80;20950;-77
2021/05/15 03:00:11;;;;;;;10.63;9.47;;;;;;;9.23;72.87;98179.14;2161563;82;21033;-77
2021/05/15 03:03:13;;;;;;;11.00;9.50;;;;;;;9.19;73.40;98186.93;2161539;82;20923;-77
2021/05/15 03:06:14;;;;;;;12.57;9.87;;;;;;;9.14;73.43;98186.02;2161733;82;21074;-77
2021/05/15 03:09:15;;;;;;;10.60;9.50;;;;;;;9.16;73.60;98188.20;2161881;82;20938;-77
2021/05/15 03:12:16;;;;;;;11.57;9.50;;;;;;;9.17;73.64;98184.74;2161859;82;21375;-77
2021/05/15 03:15:17;;;;;;;12.03;9.90;;;;;;;9.20;73.93;98189.54;2161536;82;21018;-77
2021/05/15 03:18:18;;;;;;;10.17;9.10;;;;;;;9.20;73.79;98191.27;2161780;82;20938;-77
2021/05/15 03:21:19;;;;;;;11.73;10.53;;;;;;;9.24;73.86;98199.12;2161634;82;20927;-76
2021/05/15 03:24:20;;;;;;;24.73;10.60;;;;;;;9.32;73.92;98201.77;2161802;82;20939;-76
2021/05/15 03:27:21;;;;;;;12.00;9.37;;;;;;;9.41;73.89;98208.77;2161786;82;21034;-77
2021/05/15 03:30:22;;;;;;;11.53;10.17;;;;;;;9.50;73.87;98204.92;2161544;82;21387;-77
2021/05/15 03:33:23;;;;;;;11.23;10.13;;;;;;;9.58;73.76;98201.53;2161849;82;21033;-77
2021/05/15 03:36:26;;;;;;;10.77;9.67;;;;;;;9.70;73.85;98197.24;2161690;82;21322;-77
2021/05/15 03:39:27;;;;;;;12.10;10.00;;;;;;;9.77;73.63;98193.80;2161742;82;20943;-77
2021/05/15 03:42:28;;;;;;;15.87;10.30;;;;;;;9.78;73.63;98196.41;2161503;82;20987;-77
2021/05/15 03:45:29;;;;;;;18.23;10.70;;;;;;;9.79;73.60;98199.46;2161563;82;21010;-76
2021/05/15 03:48:30;;;;;;;12.47;10.93;;;;;;;9.86;73.68;98201.66;2161614;82;20918;-77
2021/05/15 03:51:31;;;;;;;13.60;10.57;;;;;;;9.90;73.59;98199.08;2161599;82;20939;-77
2021/05/15 03:54:32;;;;;;;13.20;10.10;;;;;;;9.97;73.42;98201.70;2161637;82;20994;-78
2021/05/15 03:57:33;;;;;;;13.30;10.20;;;;;;;10.04;73.36;98209.56;2161787;81;20938;-77
2021/05/15 04:00:34;;;;;;;13.40;10.70;;;;;;;10.09;73.25;98214.79;2161696;82;21415;-77
2021/05/15 04:03:35;;;;;;;13.63;10.43;;;;;;;10.17;73.23;98213.08;2161764;82;20917;-76
2021/05/15 04:06:35;;;;;;;13.53;9.73;;;;;;;10.22;73.13;98215.30;2161730;82;21304;-77
2021/05/15 04:09:36;;;;;;;14.87;10.80;;;;;;;10.29;73.04;98210.55;2161800;82;21071;-78
2021/05/15 04:12:46;;;;;;;14.03;12.00;;;;;;;10.40;73.20;98212.78;2161677;82;20949;-78
2021/05/15 04:15:45;;;;;;;13.27;11.97;;;;;;;10.56;73.16;98213.69;2160667;82;21355;-77
2021/05/15 04:18:43;;;;;;;15.47;13.63;;;;;;;10.76;73.13;98212.41;2161258;82;20999;-77
2021/05/15 04:21:44;;;;;;;18.77;13.97;;;;;;;11.01;72.99;98211.98;2161578;82;20934;-78
2021/05/15 04:24:45;;;;;;;14.83;12.50;;;;;;;11.24;72.59;98210.23;2162012;82;20954;-78
2021/05/15 04:27:46;;;;;;;19.70;13.95;;;;;;;11.53;72.35;98210.65;2161972;82;20938;-77
2021/05/15 04:30:47;;;;;;;21.57;16.40;;;;;;;11.83;71.85;98211.04;2161850;82;21017;-77
2021/05/15 04:33:48;;;;;;;31.12;17.75;;;;;;;12.07;71.30;98210.51;2161993;82;20966;-78
2021/05/15 04:36:49;;;;;;;23.57;17.42;;;;;;;12.28;70.90;98214.80;2161655;82;20923;-78
2021/05/15 04:39:50;;;;;;;26.10;17.90;;;;;;;12.47;70.36;98211.64;2161724;82;21015;-77
2021/05/15 04:42:51;;;;;;;22.27;16.12;;;;;;;12.61;69.86;98208.50;2161839;82;20943;-78
2021/05/15 04:45:54;;;;;;;29.70;18.35;;;;;;;12.79;69.53;98213.19;2161768;82;21287;-79
2021/05/15 04:48:54;;;;;;;31.10;19.02;;;;;;;12.94;69.02;98213.95;2161786;82;20927;-79
2021/05/15 04:51:55;;;;;;;20.15;16.00;;;;;;;13.11;68.77;98213.84;2161951;82;21219;-78
2021/05/15 04:54:56;;;;;;;20.25;16.00;;;;;;;13.35;68.63;98214.10;2161917;82;20954;-79
2021/05/15 04:58:00;;;;;;;25.32;17.57;;;;;;;13.61;68.06;98221.72;2163546;81;20958;-78
2021/05/15 05:01:01;;;;;;;28.12;16.77;;;;;;;13.82;67.42;98212.30;2179230;81;21234;-76
2021/05/15 05:04:03;;;;;;;23.02;17.10;;;;;;;13.98;66.99;98217.84;2179306;81;20918;-78
2021/05/15 05:07:04;;;;;;;25.82;17.75;;;;;;;14.20;66.58;98225.00;2179128;82;21387;-78
2021/05/15 05:10:05;;;;;;;27.73;17.62;;;;;;;14.50;66.12;98221.58;2178979;81;21338;-78
2021/05/15 05:13:09;;;;;;;28.25;19.85;;;;;;;14.81;65.17;98219.42;2179186;81;21010;-77
2021/05/15 05:16:10;;;;;;;27.22;19.75;;;;;;;14.99;64.44;98217.83;2178871;82;20950;-77
2021/05/15 05:19:12;;;;;;;32.33;20.75;;;;;;;15.23;63.51;98221.81;2179002;82;20954;-78
2021/05/15 05:22:13;;;;;;;26.15;19.35;;;;;;;16.53;67.79;98223.77;2178990;81;20906;-77
2021/05/15 05:25:16;;;;;;;22.37;14.30;;;;;;;18.65;63.39;98218.81;2179026;82;20985;-77
2021/05/15 05:28:21;;;;;;;26.33;17.90;;;;;;;19.79;59.44;98213.78;2178841;81;20926;-78
2021/05/15 05:31:19;;;;;;;30.97;20.55;;;;;;;20.72;56.86;98218.34;2178504;82;21389;-78
2021/05/15 05:34:20;;;;;;;21.23;15.80;;;;;;;21.41;53.57;98224.45;2178873;81;20934;-78
2021/05/15 05:37:22;;;;;;;21.17;17.85;;;;;;;21.65;52.60;98223.02;2179066;81;20933;-78
2021/05/15 05:40:23;;;;;;;24.40;18.02;;;;;;;22.05;51.31;98235.51;2179014;82;20926;-77
2021/05/15 05:43:24;;;;;;;32.08;18.82;;;;;;;22.23;49.06;98231.56;2179063;81;20950;-76
2021/05/15 05:46:25;;;;;;;20.92;18.10;;;;;;;22.50;49.04;98225.92;2179023;81;20955;-78
2021/05/15 05:49:26;;;;;;;21.97;18.23;;;;;;;22.88;47.89;98230.85;2179007;82;20950;-78
2021/05/15 05:52:27;;;;;;;22.85;18.20;;;;;;;22.95;47.70;98238.94;2178919;81;21314;-77
2021/05/15 05:55:28;;;;;;;20.55;16.95;;;;;;;23.33;47.14;98237.08;2179091;81;21267;-78
2021/05/15 05:58:29;;;;;;;22.27;16.93;;;;;;;23.49;46.26;98236.75;2175480;81;21446;-78
2021/05/15 06:01:30;;;;;;;19.60;17.00;;;;;;;23.80;44.93;98239.23;2161547;82;20950;-77
2021/05/15 06:04:31;;;;;;;21.40;17.15;;;;;;;24.08;45.01;98235.52;2161364;82;21423;-76
2021/05/15 06:07:32;;;;;;;26.15;17.82;;;;;;;24.07;42.84;98236.94;2161580;82;20939;-76
2021/05/15 06:10:35;;;;;;;24.52;17.52;;;;;;;23.74;42.23;98242.20;2161353;82;21323;-77
2021/05/15 06:13:36;;;;;;;19.60;14.80;;;;;;;23.26;43.51;98240.98;2161442;82;20943;-76
2021/05/15 06:16:37;;;;;;;21.87;17.42;;;;;;;23.30;43.48;98242.55;2161473;82;20935;-77
2021/05/15 06:19:38;;;;;;;22.45;15.88;;;;;;;21.99;41.95;98251.22;2161358;82;20950;-76
2021/05/15 06:22:39;;;;;;;20.52;15.00;;;;;;;21.90;43.33;98248.97;2161333;82;21407;-76
2021/05/15 06:25:40;;;;;;;21.82;15.60;;;;;;;22.08;45.14;98253.98;2161315;82;20984;-76
2021/05/15 06:28:42;;;;;;;19.20;14.13;;;;;;;22.71;44.76;98250.23;2140428;82;20891;-77
2021/05/15 06:31:43;;;;;;;16.30;14.00;;;;;;;23.47;43.43;98246.62;2161596;82;20926;-76
2021/05/15 06:34:44;;;;;;;16.65;13.72;;;;;;;23.46;41.45;98246.69;2161669;82;20982;-77
2021/05/15 06:37:45;;;;;;;15.45;13.68;;;;;;;22.74;42.35;98250.09;2161509;82;21014;-77
2021/05/15 06:40:46;;;;;;;19.35;15.40;;;;;;;23.05;43.07;98248.67;2161667;82;20979;-77
2021/05/15 06:43:47;;;;;;;15.10;12.40;;;;;;;22.17;41.54;98249.13;2161472;82;20922;-76
2021/05/15 06:46:48;;;;;;;20.85;15.05;;;;;;;22.15;42.92;98250.12;2161671;82;20931;-76
2021/05/15 06:49:49;;;;;;;18.30;12.35;;;;;;;22.55;42.66;98244.77;2161528;82;20979;-77
2021/05/15 06:52:50;;;;;;;19.95;12.45;;;;;;;22.95;42.58;98247.39;2161454;82;21003;-76
2021/05/15 06:55:51;;;;;;;15.05;10.15;;;;;;;22.95;42.42;98248.72;2161630;82;20907;-76
2021/05/15 06:58:53;;;;;;;12.75;9.35;;;;;;;22.38;43.09;98257.06;2165426;81;21398;-76
2021/05/15 07:01:54;;;;;;;9.38;8.23;;;;;;;22.95;38.34;98255.37;2179028;82;20919;-77
2021/05/15 07:04:55;;;;;;;10.35;8.53;;;;;;;22.33;41.58;98253.28;2178880;82;20954;-76
2021/05/15 07:07:56;;;;;;;12.03;8.45;;;;;;;22.05;41.38;98256.30;2178875;82;20914;-77
2021/05/15 07:10:57;;;;;;;13.03;8.40;;;;;;;22.18;40.92;98251.31;2178878;82;21358;-76
2021/05/15 07:13:58;;;;;;;13.03;8.30;;;;;;;22.78;41.28;98247.69;2179019;82;20966;-76
2021/05/15 07:16:59;;;;;;;10.75;7.58;;;;;;;22.54;41.12;98249.69;2179096;82;20930;-76
2021/05/15 07:20:00;;;;;;;9.95;7.15;;;;;;;22.74;39.19;98258.08;2179162;82;21385;-77
2021/05/15 07:23:01;;;;;;;9.55;7.03;;;;;;;22.43;39.75;98268.36;2178996;82;20962;-76
2021/05/15 07:26:02;;;;;;;8.38;6.70;;;;;;;22.45;41.48;98262.50;2179128;82;20965;-77
2021/05/15 07:29:03;;;;;;;14.05;7.05;;;;;;;22.51;40.22;98267.55;2178836;81;20930;-76
2021/05/15 07:32:04;;;;;;;13.38;6.97;;;;;;;22.34;40.88;98264.78;2178880;82;20938;-77
2021/05/15 07:35:06;;;;;;;13.25;6.30;;;;;;;22.67;41.49;98253.97;2178859;82;21005;-76
2021/05/15 07:38:07;;;;;;;8.90;6.85;;;;;;;23.06;38.08;98260.58;2178873;82;21325;-77
2021/05/15 07:41:08;;;;;;;9.05;6.80;;;;;;;23.32;40.97;98247.81;2178869;82;21307;-76
2021/05/15 07:44:09;;;;;;;7.12;6.40;;;;;;;23.20;37.56;98250.59;2178987;82;20969;-76
2021/05/15 07:47:11;;;;;;;8.73;7.03;;;;;;;22.18;38.24;98253.50;2178994;82;21318;-76
2021/05/15 07:50:12;;;;;;;17.70;9.90;;;;;;;22.42;38.90;98259.52;2179001;82;21386;-76
2021/05/15 07:53:13;;;;;;;6.65;5.60;;;;;;;22.75;39.75;98250.95;2178907;82;21390;-76
2021/05/15 07:56:14;;;;;;;13.58;7.20;;;;;;;22.96;38.10;98247.78;2179007;82;20910;-75
2021/05/15 07:59:16;;;;;;;15.63;6.12;;;;;;;23.45;37.74;98248.96;2178871;81;21552;-76
2021/05/15 08:02:17;;;;;;;11.00;5.60;;;;;;;23.88;39.51;98242.36;2178860;82;21276;-77
2021/05/15 08:05:18;;;;;;;10.32;5.25;;;;;;;23.63;37.76;98252.55;2178867;82;20934;-76
2021/05/15 08:08:19;;;;;;;10.35;5.75;;;;;;;23.00;37.12;98256.02;2178998;82;20934;-76
2021/05/15 08:11:20;;;;;;;9.33;5.30;;;;;;;22.71;38.95;98251.56;2178891;82;20946;-76
2021/05/15 08:14:21;;;;;;;11.78;5.90;;;;;;;23.83;39.19;98238.59;2178984;82;20938;-76
2021/05/15 08:17:22;;;;;;;18.98;6.87;;;;;;;24.06;36.48;98252.55;2178806;82;20914;-76
2021/05/15 08:20:23;;;;;;;8.45;6.15;;;;;;;24.45;36.55;98249.64;2178883;82;20916;-77
2021/05/15 08:23:24;;;;;;;8.78;5.37;;;;;;;23.95;35.49;98248.23;2178841;82;20997;-77
2021/05/15 08:26:27;;;;;;;8.48;5.55;;;;;;;23.32;36.77;98255.80;2178948;82;20969;-77
2021/05/15 08:29:29;;;;;;;7.28;5.67;;;;;;;22.96;35.95;98261.09;2179160;81;21073;-76
2021/05/15 08:32:30;;;;;;;9.18;6.65;;;;;;;21.79;37.35;98273.33;2178830;82;20973;-77
2021/05/15 08:35:31;;;;;;;10.03;7.10;;;;;;;20.67;41.36;98268.03;2178960;82;20945;-76
2021/05/15 08:38:32;;;;;;;14.50;8.25;;;;;;;21.97;39.43;98269.03;2178965;82;21009;-77
2021/05/15 08:41:34;;;;;;;14.35;13.10;;;;;;;23.01;40.39;98261.73;2178816;82;20899;-77
2021/05/15 08:44:35;;;;;;;19.05;17.35;;;;;;;24.45;38.93;98257.64;2178931;82;20934;-77
2021/05/15 08:47:36;;;;;;;15.35;13.93;;;;;;;25.22;35.68;98251.20;2178927;82;21013;-76
2021/05/15 08:50:37;;;;;;;47.40;43.28;;;;;;;25.30;34.15;98256.97;2179084;81;21026;-76
2021/05/15 08:53:39;;;;;;;28.70;25.97;;;;;;;25.38;35.88;98254.72;2179036;82;20989;-77
2021/05/15 08:56:39;;;;;;;22.87;20.60;;;;;;;24.53;33.14;98261.23;2178938;82;20934;-77
2021/05/15 08:59:40;;;;;;;61.25;55.30;;;;;;;23.46;34.70;98268.86;2173824;81;21371;-77
2021/05/15 09:02:42;;;;;;;93.50;84.37;;;;;;;23.47;35.15;98263.06;2161489;82;20943;-77
2021/05/15 09:05:43;;;;;;;56.95;50.90;;;;;;;23.44;37.46;98268.08;2161423;82;20939;-77
2021/05/15 09:08:44;;;;;;;28.83;25.77;;;;;;;24.07;34.28;98260.46;2161501;82;20950;-76
2021/05/15 09:11:46;;;;;;;116.47;90.90;;;;;;;24.05;33.38;98257.02;2161266;82;20903;-76
2021/05/15 09:14:47;;;;;;;90.30;75.97;;;;;;;24.49;34.87;98265.88;2161169;82;21042;-76
2021/05/15 09:17:48;;;;;;;240.87;214.48;;;;;;;24.53;33.15;98262.56;2161330;82;21037;-76
2021/05/15 09:20:49;;;;;;;44.33;35.00;;;;;;;24.44;35.51;98258.11;2161367;82;21030;-77
2021/05/15 09:23:51;;;;;;;23.22;18.23;;;;;;;24.56;32.42;98259.73;2161328;82;21334;-77
2021/05/15 09:26:52;;;;;;;28.32;21.75;;;;;;;24.09;34.35;98259.91;2161349;82;21268;-78
2021/05/15 09:29:53;;;;;;;37.15;27.27;;;;;;;23.82;35.39;98271.99;2161366;82;21094;-77
2021/05/15 09:32:54;;;;;;;41.95;36.25;;;;;;;23.97;37.24;98271.20;2161364;82;20923;-77
2021/05/15 09:35:55;;;;;;;61.80;52.65;;;;;;;24.10;35.16;98266.97;2161519;82;20950;-76
2021/05/15 09:38:56;;;;;;;38.55;29.72;;;;;;;24.44;34.91;98265.25;2161479;82;21295;-78
2021/05/15 09:42:01;;;;;;;18.73;13.72;;;;;;;24.64;31.95;98269.05;2161464;82;20982;-77
2021/05/15 09:45:01;;;;;;;22.60;20.20;;;;;;;24.17;33.71;98255.98;2161363;82;20923;-78
2021/05/15 09:48:02;;;;;;;25.52;19.55;;;;;;;24.40;34.04;98265.03;2161688;82;20962;-78
2021/05/15 09:51:03;;;;;;;26.35;19.27;;;;;;;23.79;33.24;98266.81;2161958;82;20939;-78
2021/05/15 09:54:04;;;;;;;18.05;15.03;;;;;;;23.55;34.80;98265.38;2161607;82;21394;-77
2021/05/15 09:57:06;;;;;;;21.68;16.32;;;;;;;23.48;34.95;98256.80;2161529;82;20947;-77
2021/05/15 10:00:07;;;;;;;11.22;3.95;;;;;;;23.92;34.34;98253.26;2161632;82;21489;-78
2021/05/15 10:03:08;;;;;;;6.30;4.40;;;;;;;23.01;31.71;98265.73;2161988;82;20927;-78
2021/05/15 10:06:10;;;;;;;8.08;4.55;;;;;;;22.35;32.74;98264.72;2161782;82;20974;-79
2021/05/15 10:09:11;;;;;;;3.37;2.92;;;;;;;22.53;32.96;98267.01;2161744;82;21342;-77
2021/05/15 10:12:12;;;;;;;5.70;2.87;;;;;;;22.42;32.61;98270.16;2161712;82;21411;-78
2021/05/15 10:15:14;;;;;;;7.65;3.50;;;;;;;22.47;33.82;98267.29;2161583;82;20951;-78
2021/05/15 10:18:15;;;;;;;5.50;3.92;;;;;;;22.47;33.94;98271.28;2161614;82;20958;-77
2021/05/15 10:21:16;;;;;;;6.95;3.47;;;;;;;21.84;34.35;98266.50;2161585;82;21343;-77
2021/05/15 10:24:17;;;;;;;6.53;3.10;;;;;;;22.25;35.43;98262.07;2161753;82;21003;-77
2021/05/15 10:27:18;;;;;;;3.15;2.72;;;;;;;23.12;34.14;98262.95;2161629;82;20946;-78
2021/05/15 10:30:19;;;;;;;3.20;2.87;;;;;;;24.02;33.36;98253.17;2161639;82;21019;-79
2021/05/15 10:33:20;;;;;;;4.83;3.40;;;;;;;24.77;32.13;98250.09;2161644;82;20945;-78
2021/05/15 10:36:21;;;;;;;4.00;3.17;;;;;;;24.74;31.59;98254.73;2161799;82;21018;-78
2021/05/15 10:39:23;;;;;;;2.98;2.67;;;;;;;24.83;30.40;98248.02;2161889;82;20959;-78
2021/05/15 10:42:24;;;;;;;4.55;3.27;;;;;;;24.66;29.57;98255.63;2161637;82;21431;-77
2021/05/15 10:45:25;;;;;;;5.58;2.62;;;;;;;24.01;29.94;98250.12;2161967;82;20967;-77
2021/05/15 10:48:26;;;;;;;3.70;2.65;;;;;;;23.40;30.93;98249.63;2161641;82;21327;-78
2021/05/15 10:51:27;;;;;;;9.48;3.33;;;;;;;23.48;32.91;98249.67;2141092;82;21030;-78
2021/05/15 10:54:29;;;;;;;4.95;2.62;;;;;;;23.88;32.99;98246.36;2161753;82;20998;-78
2021/05/15 10:57:31;;;;;;;3.90;2.90;;;;;;;23.97;31.30;98241.88;2141033;82;20962;-77
2021/05/15 11:00:32;;;;;;;4.08;3.00;;;;;;;24.35;30.60;98237.73;2168163;82;21017;-77
2021/05/15 11:03:33;;;;;;;3.27;2.75;;;;;;;24.63;31.50;98241.11;2178778;82;20950;-78
2021/05/15 11:06:34;;;;;;;3.22;2.80;;;;;;;24.74;30.95;98238.72;2179103;82;20942;-77
2021/05/15 11:09:35;;;;;;;5.72;2.77;;;;;;;24.55;31.28;98234.86;2178969;82;20962;-77
2021/05/15 11:12:36;;;;;;;3.65;2.98;;;;;;;24.55;30.64;98228.19;2178990;82;20926;-77
2021/05/15 11:15:37;;;;;;;4.65;2.72;;;;;;;24.58;30.30;98232.03;2179159;82;20914;-78
2021/05/15 11:18:38;;;;;;;9.45;3.20;;;;;;;24.32;30.76;98231.23;2179208;82;21303;-78
2021/05/15 11:21:40;;;;;;;14.60;3.05;;;;;;;24.04;32.01;98219.30;2179466;82;21345;-78
2021/05/15 11:24:41;;;;;;;7.58;2.83;;;;;;;24.58;32.39;98214.69;2179265;82;21366;-77
2021/05/15 11:27:42;;;;;;;5.65;2.95;;;;;;;24.74;31.18;98207.55;2178911;82;20954;-78
2021/05/15 11:30:43;;;;;;;2.52;2.33;;;;;;;24.75;31.39;98204.41;2178891;82;20994;-77
2021/05/15 11:33:44;;;;;;;5.65;3.05;;;;;;;25.48;30.54;98200.27;2178898;82;20970;-77
2021/05/15 11:36:45;;;;;;;3.92;2.67;;;;;;;25.73;29.37;98202.86;2179150;82;21426;-78
2021/05/15 11:39:46;;;;;;;10.05;3.08;;;;;;;25.32;30.00;98206.12;2179109;82;20965;-78
2021/05/15 11:42:47;;;;;;;3.67;2.58;;;;;;;25.10;31.18;98206.46;2179174;82;20969;-78
2021/05/15 11:45:50;;;;;;;3.10;2.80;;;;;;;25.19;31.84;98203.30;2179793;82;20946;-78
2021/05/15 11:48:50;;;;;;;5.37;3.02;;;;;;;24.85;30.12;98198.09;2179110;82;20957;-77
2021/05/15 11:51:51;;;;;;;4.60;2.95;;;;;;;24.53;31.01;98200.73;2179135;82;20918;-77
2021/05/15 11:54:52;;;;;;;3.80;2.95;;;;;;;24.53;31.18;98196.73;2179018;82;21310;-78
2021/05/15 11:57:53;;;;;;;4.17;2.70;;;;;;;24.58;31.86;98192.00;2179141;82;20985;-80
2021/05/15 12:00:54;;;;;;;3.62;2.60;;;;;;;24.62;30.56;98189.55;2179358;81;21030;-77
2021/05/15 12:03:55;;;;;;;5.35;2.95;;;;;;;24.12;30.00;98189.56;2179242;82;20974;-78
2021/05/15 12:06:56;;;;;;;4.55;2.45;;;;;;;24.00;31.97;98187.55;2179185;82;20971;-77
2021/05/15 12:09:59;;;;;;;8.35;2.90;;;;;;;24.24;30.64;98177.38;2179293;82;20992;-77
2021/05/15 12:13:00;;;;;;;8.30;3.20;;;;;;;24.72;30.46;98184.56;2179397;82;21379;-77
2021/05/15 12:16:01;;;;;;;8.18;2.70;;;;;;;25.02;31.73;98177.53;2178953;82;21026;-77
2021/05/15 12:19:02;;;;;;;4.45;2.72;;;;;;;25.25;31.05;98177.57;2178993;82;21009;-77
2021/05/15 12:22:03;;;;;;;3.70;2.70;;;;;;;25.72;32.02;98175.27;2178954;82;20903;-77
2021/05/15 12:25:04;;;;;;;4.55;2.80;;;;;;;25.93;28.76;98170.44;2178849;82;20938;-77
2021/05/15 12:28:05;;;;;;;6.10;2.72;;;;;;;26.12;30.50;98160.84;2179057;82;20950;-77
2021/05/15 12:31:06;;;;;;;3.75;2.52;;;;;;;26.00;30.04;98160.61;2179079;82;21073;-76
2021/05/15 12:34:07;;;;;;;2.50;2.30;;;;;;;26.00;30.13;98162.42;2179038;82;20977;-77
2021/05/15 12:37:08;;;;;;;6.08;2.60;;;;;;;26.15;31.66;98158.84;2179002;82;21002;-77
2021/05/15 12:40:09;;;;;;;5.35;2.87;;;;;;;25.98;30.56;98155.83;2178996;82;21323;-77
2021/05/15 12:43:10;;;;;;;3.60;2.50;;;;;;;26.32;31.46;98149.76;2178885;82;21382;-77
2021/05/15 12:46:11;;;;;;;3.50;2.40;;;;;;;26.51;30.13;98149.01;2178919;82;20934;-77
2021/05/15 12:49:12;;;;;;;4.92;2.72;;;;;;;26.59;31.10;98148.04;2178862;82;21315;-77
2021/05/15 12:52:14;;;;;;;2.95;2.47;;;;;;;26.85;30.86;98144.16;2179219;82;20965;-78
2021/05/15 12:55:18;;;;;;;6.30;2.92;;;;;;;26.91;28.67;98138.44;2179444;82;20935;-78
2021/05/15 12:58:19;;;;;;;3.70;2.45;;;;;;;26.82;30.07;98142.53;2178995;82;21010;-79
2021/05/15 13:01:20;;;;;;;3.80;2.70;;;;;;;27.08;30.15;98138.21;2179044;81;21037;-78
2021/05/15 13:04:21;;;;;;;2.60;2.27;;;;;;;27.34;30.03;98132.45;2178842;82;20985;-77
2021/05/15 13:07:22;;;;;;;3.77;2.70;;;;;;;27.41;28.62;98127.53;2178976;82;20950;-80
2021/05/15 13:10:24;;;;;;;3.20;2.50;;;;;;;27.53;28.23;98124.88;2178927;82;20957;-77
2021/05/15 13:13:25;;;;;;;3.70;2.33;;;;;;;27.87;29.15;98123.95;2178917;82;20930;-77
2021/05/15 13:16:27;;;;;;;2.50;2.30;;;;;;;28.07;27.08;98119.88;2179034;82;20981;-77
2021/05/15 13:19:29;;;;;;;3.30;2.20;;;;;;;27.94;27.10;98119.88;2178902;82;20954;-77
2021/05/15 13:22:30;;;;;;;4.12;2.00;;;;;;;27.61;24.70;98121.70;2178844;82;20966;-76
2021/05/15 13:25:31;;;;;;;2.42;2.10;;;;;;;26.86;28.55;98111.06;2179072;82;20962;-77
2021/05/15 13:28:37;;;;;;;2.60;2.40;;;;;;;26.71;27.86;98110.25;2179043;82;20939;-77
2021/05/15 13:31:35;;;;;;;2.98;2.12;;;;;;;26.86;29.70;98112.41;2178465;82;21497;-78
2021/05/15 13:34:36;;;;;;;2.52;2.33;;;;;;;27.12;27.08;98100.89;2178998;82;20946;-79
2021/05/15 13:37:37;;;;;;;3.55;2.00;;;;;;;26.57;28.56;98104.45;2179043;82;20981;-77
2021/05/15 13:40:39;;;;;;;3.83;2.35;;;;;;;26.40;29.45;98112.70;2178936;82;21358;-77
2021/05/15 13:43:40;;;;;;;3.83;2.40;;;;;;;26.30;27.83;98110.20;2179174;82;20961;-77
2021/05/15 13:46:41;;;;;;;3.20;2.25;;;;;;;26.27;29.00;98118.42;2179125;82;20986;-77
2021/05/15 13:49:42;;;;;;;2.42;2.30;;;;;;;26.38;28.18;98108.41;2179148;82;20997;-77
2021/05/15 13:52:43;;;;;;;3.35;2.60;;;;;;;26.33;29.58;98114.05;2178929;82;20970;-76
2021/05/15 13:55:44;;;;;;;3.83;2.67;;;;;;;26.33;30.20;98105.55;2178798;82;21293;-77
2021/05/15 13:58:45;;;;;;;5.80;2.75;;;;;;;26.40;30.05;98112.70;2178812;82;20930;-77
2021/05/15 14:01:46;;;;;;;2.92;2.62;;;;;;;26.31;29.45;98104.75;2178707;82;21072;-77
2021/05/15 14:04:47;;;;;;;2.45;2.25;;;;;;;26.34;30.20;98105.07;2178888;82;20962;-77
2021/05/15 14:07:48;;;;;;;4.78;2.70;;;;;;;26.32;29.83;98106.50;2178961;82;21045;-77
2021/05/15 14:10:49;;;;;;;2.92;2.47;;;;;;;26.57;28.22;98100.44;2178889;82;20934;-77